createdAt,value
2018-08-09T00:01:27.137Z,24.30
2018-08-09T00:03:54.700Z,24.30
2018-08-09T00:06:22.172Z,24.20
2018-08-09T00:08:49.588Z,24.20
2018-08-09T00:11:17.004Z,24.20
2018-08-09T00:13:44.466Z,24.10
2018-08-09T00:16:11.813Z,24.00
2018-08-09T00:18:39.255Z,24.00
2018-08-09T00:21:06.678Z,23.90
2018-08-09T00:23:34.066Z,23.80
2018-08-09T00:26:01.518Z,23.80
2018-08-09T00:28:28.922Z,23.80
2018-08-09T00:30:56.419Z,23.80
2018-08-09T00:33:23.870Z,23.80
2018-08-09T00:35:51.278Z,23.80
2018-08-09T00:38:18.756Z,23.70
2018-08-09T00:40:46.214Z,23.60
2018-08-09T00:43:13.628Z,23.50
2018-08-09T00:45:41.106Z,23.60
2018-08-09T00:48:08.616Z,23.50
2018-08-09T00:50:35.993Z,23.50
2018-08-09T00:53:03.514Z,23.40
2018-08-09T00:55:30.887Z,23.50
2018-08-09T00:57:58.380Z,23.50
2018-08-09T01:00:26.663Z,23.50
2018-08-09T01:02:54.059Z,23.50
2018-08-09T01:05:21.471Z,23.40
2018-08-09T01:07:48.906Z,23.40
2018-08-09T01:10:16.246Z,23.40
2018-08-09T01:12:43.715Z,23.40
2018-08-09T01:15:11.286Z,23.40
2018-08-09T01:17:38.774Z,23.40
2018-08-09T01:20:06.468Z,23.40
2018-08-09T01:22:33.956Z,23.40
2018-08-09T01:25:01.412Z,23.30
2018-08-09T01:27:28.771Z,23.30
2018-08-09T01:29:56.299Z,23.30
2018-08-09T01:32:23.720Z,23.30
2018-08-09T01:34:51.195Z,23.20
2018-08-09T01:37:18.729Z,23.20
2018-08-09T01:39:46.215Z,23.20
2018-08-09T01:42:24.984Z,23.20
2018-08-09T01:44:52.392Z,23.20
2018-08-09T01:47:19.816Z,23.10
2018-08-09T01:49:47.209Z,23.10
2018-08-09T01:52:14.610Z,23.10
2018-08-09T01:54:42.186Z,23.10
2018-08-09T01:57:09.632Z,23.00
2018-08-09T01:59:37.068Z,23.00
2018-08-09T02:02:04.624Z,23.00
2018-08-09T02:04:32.108Z,22.90
2018-08-09T02:06:59.517Z,22.90
2018-08-09T02:09:31.711Z,22.90
2018-08-09T02:11:59.198Z,22.90
2018-08-09T02:14:26.644Z,22.90
2018-08-09T02:16:54.097Z,22.80
2018-08-09T02:19:21.572Z,22.90
2018-08-09T02:21:48.941Z,22.80
2018-08-09T02:24:16.379Z,22.70
2018-08-09T02:26:43.881Z,22.70
2018-08-09T02:29:11.384Z,22.70
2018-08-09T02:31:38.797Z,22.60
2018-08-09T02:34:06.508Z,22.60
2018-08-09T02:36:33.972Z,22.60
2018-08-09T02:39:01.424Z,22.50
2018-08-09T02:41:28.920Z,22.40
2018-08-09T02:43:56.285Z,22.40
2018-08-09T02:46:23.623Z,22.30
2018-08-09T02:48:51.067Z,22.30
2018-08-09T02:51:18.476Z,22.30
2018-08-09T02:53:45.901Z,22.30
2018-08-09T02:56:13.390Z,22.30
2018-08-09T02:58:40.784Z,22.30
2018-08-09T03:01:08.267Z,22.30
2018-08-09T03:03:35.644Z,22.20
2018-08-09T03:06:03.068Z,22.20
2018-08-09T03:08:30.502Z,22.10
2018-08-09T03:10:57.909Z,22.20
2018-08-09T03:13:25.387Z,22.10
2018-08-09T03:15:52.823Z,22.10
2018-08-09T03:18:20.229Z,22.10
2018-08-09T03:20:47.721Z,22.10
2018-08-09T03:23:15.119Z,22.10
2018-08-09T03:25:42.579Z,22.10
2018-08-09T03:28:10.002Z,22.10
2018-08-09T03:30:37.496Z,22.10
2018-08-09T03:33:05.050Z,22.10
2018-08-09T03:35:32.482Z,22.10
2018-08-09T03:37:59.939Z,22.10
2018-08-09T03:40:28.012Z,22.10
2018-08-09T03:42:55.445Z,22.20
2018-08-09T03:45:22.852Z,22.30
2018-08-09T03:47:50.393Z,22.30
2018-08-09T03:50:17.866Z,22.30
2018-08-09T03:52:45.199Z,22.40
2018-08-09T03:55:12.698Z,22.40
2018-08-09T03:57:40.046Z,22.40
2018-08-09T04:00:08.505Z,22.40
2018-08-09T04:02:35.880Z,22.40
2018-08-09T04:05:04.351Z,22.40
2018-08-09T04:07:31.777Z,22.40
2018-08-09T04:09:59.253Z,22.40
2018-08-09T04:12:26.640Z,22.40
2018-08-09T04:14:54.091Z,22.10
2018-08-09T04:17:22.000Z,22.00
2018-08-09T04:19:50.784Z,21.90
2018-08-09T04:22:18.963Z,21.90
2018-08-09T04:24:46.983Z,22.00
2018-08-09T04:27:14.386Z,21.90
2018-08-09T04:29:41.788Z,21.90
2018-08-09T04:32:09.218Z,21.90
2018-08-09T04:34:36.936Z,21.80
2018-08-09T04:37:04.828Z,21.70
2018-08-09T04:39:32.250Z,21.80
2018-08-09T04:41:59.729Z,21.80
2018-08-09T04:44:27.162Z,21.80
2018-08-09T04:46:54.545Z,21.80
2018-08-09T04:49:22.059Z,21.80
2018-08-09T04:51:49.431Z,21.80
2018-08-09T04:54:16.880Z,21.80
2018-08-09T04:56:44.308Z,21.70
2018-08-09T04:59:11.783Z,21.70
2018-08-09T05:01:39.156Z,21.70
2018-08-09T05:04:06.632Z,21.70
2018-08-09T05:06:34.042Z,21.80
2018-08-09T05:09:01.520Z,21.80
2018-08-09T05:11:29.028Z,21.90
2018-08-09T05:13:56.431Z,21.90
2018-08-09T05:16:23.836Z,22.00
2018-08-09T05:18:51.364Z,22.00
2018-08-09T05:21:18.772Z,22.10
2018-08-09T05:23:46.569Z,22.10
2018-08-09T05:26:14.044Z,22.10
2018-08-09T05:28:41.576Z,22.20
2018-08-09T05:31:08.987Z,22.30
2018-08-09T05:33:36.408Z,22.30
2018-08-09T05:36:03.828Z,22.40
2018-08-09T05:38:31.344Z,22.40
2018-08-09T05:40:58.775Z,22.40
2018-08-09T05:43:26.184Z,22.40
2018-08-09T05:45:53.606Z,22.40
2018-08-09T05:48:21.011Z,22.40
2018-08-09T05:50:48.507Z,22.40
2018-08-09T05:53:16.138Z,22.40
2018-08-09T05:55:43.552Z,22.50
2018-08-09T05:58:10.973Z,22.50
2018-08-09T06:00:38.622Z,22.50
2018-08-09T06:03:06.301Z,22.50
2018-08-09T06:05:33.818Z,22.50
2018-08-09T06:08:01.182Z,22.60
2018-08-09T06:10:28.528Z,22.60
2018-08-09T06:12:56.028Z,22.70
2018-08-09T06:15:23.511Z,22.70
2018-08-09T06:17:50.907Z,22.70
2018-08-09T06:20:18.331Z,22.70
2018-08-09T06:22:45.747Z,22.70
2018-08-09T06:25:13.265Z,22.80
2018-08-09T06:27:40.693Z,22.80
2018-08-09T06:30:08.996Z,22.80
2018-08-09T06:32:36.544Z,22.90
2018-08-09T06:35:05.554Z,22.90
2018-08-09T06:37:33.000Z,22.90
2018-08-09T06:40:00.512Z,22.90
2018-08-09T06:42:28.051Z,22.90
2018-08-09T06:44:55.429Z,22.90
2018-08-09T06:47:22.944Z,22.90
2018-08-09T06:49:50.352Z,22.90
2018-08-09T06:52:17.812Z,22.90
2018-08-09T06:54:45.245Z,22.90
2018-08-09T06:57:12.594Z,22.90
2018-08-09T06:59:39.983Z,22.90
2018-08-09T07:02:07.447Z,23.00
2018-08-09T07:04:34.936Z,23.00
2018-08-09T07:07:02.474Z,23.00
2018-08-09T07:09:29.883Z,23.10
2018-08-09T07:11:57.290Z,23.10
2018-08-09T07:14:24.795Z,23.20
2018-08-09T07:16:52.250Z,23.20
2018-08-09T07:19:19.727Z,23.30
2018-08-09T07:21:47.228Z,23.30
2018-08-09T07:24:16.597Z,23.40
2018-08-09T07:26:44.070Z,23.40
2018-08-09T07:29:11.426Z,23.50
2018-08-09T07:31:38.875Z,23.50
2018-08-09T07:34:06.311Z,23.50
2018-08-09T07:36:33.755Z,23.50
2018-08-09T07:39:01.229Z,23.60
2018-08-09T07:41:28.741Z,23.60
2018-08-09T07:43:56.165Z,23.70
2018-08-09T07:46:23.566Z,23.70
2018-08-09T07:48:51.152Z,23.80
2018-08-09T07:51:18.471Z,23.80
2018-08-09T07:53:45.917Z,23.90
2018-08-09T07:56:13.376Z,23.90
2018-08-09T07:58:40.875Z,24.00
2018-08-09T08:01:08.414Z,24.10
2018-08-09T08:03:35.863Z,24.10
2018-08-09T08:06:03.364Z,24.10
2018-08-09T08:08:30.912Z,24.20
2018-08-09T08:10:58.358Z,24.20
2018-08-09T08:13:25.811Z,24.30
2018-08-09T08:15:53.302Z,24.40
2018-08-09T08:18:20.719Z,24.40
2018-08-09T08:20:48.292Z,24.40
2018-08-09T08:23:15.596Z,24.40
2018-08-09T08:25:43.143Z,24.50
2018-08-09T08:28:10.626Z,24.60
2018-08-09T08:30:37.994Z,24.60
2018-08-09T08:33:05.413Z,24.70
2018-08-09T08:35:32.879Z,24.70
2018-08-09T08:38:00.403Z,24.80
2018-08-09T08:40:27.801Z,24.90
2018-08-09T08:42:55.362Z,25.00
2018-08-09T08:45:22.752Z,25.20
2018-08-09T08:47:50.238Z,25.30
2018-08-09T08:50:17.694Z,25.30
2018-08-09T08:52:45.154Z,25.40
2018-08-09T08:55:12.720Z,25.40
2018-08-09T08:57:40.157Z,25.40
2018-08-09T09:00:09.439Z,25.70
2018-08-09T09:02:37.136Z,25.70
2018-08-09T09:05:06.088Z,25.80
2018-08-09T09:07:33.408Z,25.90
2018-08-09T09:10:00.883Z,25.90
2018-08-09T09:12:28.335Z,26.10
2018-08-09T09:14:55.709Z,26.20
2018-08-09T09:17:23.164Z,26.20
2018-08-09T09:19:50.523Z,26.40
2018-08-09T09:22:18.058Z,26.50
2018-08-09T09:24:45.474Z,26.60
2018-08-09T09:29:39.886Z,26.70
2018-08-09T09:32:07.349Z,27.10
2018-08-09T09:34:34.809Z,27.10
2018-08-09T09:37:02.379Z,27.30
2018-08-09T09:39:29.845Z,27.20
2018-08-09T09:41:57.348Z,27.50
2018-08-09T09:44:24.886Z,27.90
2018-08-09T09:46:52.324Z,28.10
2018-08-09T09:49:19.891Z,28.10
2018-08-09T09:51:47.319Z,28.30
2018-08-09T09:54:14.816Z,28.30
2018-08-09T09:56:42.212Z,28.30
2018-08-09T09:59:09.620Z,28.30
2018-08-09T10:01:37.066Z,28.40
2018-08-09T10:04:05.473Z,28.50
2018-08-09T10:06:33.413Z,28.50
2018-08-09T10:09:00.827Z,28.50
2018-08-09T10:11:28.249Z,28.90
2018-08-09T10:13:55.692Z,29.00
2018-08-09T10:16:23.114Z,29.10
2018-08-09T10:18:50.516Z,29.10
2018-08-09T10:21:18.008Z,29.20
2018-08-09T10:23:45.497Z,29.30
2018-08-09T10:26:12.995Z,29.50
2018-08-09T10:28:40.339Z,29.70
2018-08-09T10:31:08.732Z,29.90
2018-08-09T10:33:36.074Z,30.00
2018-08-09T10:36:03.435Z,30.00
2018-08-09T10:38:30.942Z,29.90
2018-08-09T10:40:58.367Z,29.80
2018-08-09T10:43:25.845Z,29.80
2018-08-09T10:45:53.255Z,29.80
2018-08-09T10:48:20.660Z,30.00
2018-08-09T10:50:48.084Z,30.00
2018-08-09T10:53:15.580Z,30.00
2018-08-09T10:55:43.079Z,30.10
2018-08-09T10:58:10.543Z,30.40
2018-08-09T11:00:37.944Z,30.60
2018-08-09T11:03:05.401Z,31.00
2018-08-09T11:05:32.927Z,31.10
2018-08-09T11:08:00.358Z,31.10
2018-08-09T11:10:27.794Z,31.20
2018-08-09T11:12:55.251Z,31.20
2018-08-09T11:15:22.723Z,31.40
2018-08-09T11:17:50.167Z,31.40
2018-08-09T11:20:17.602Z,31.40
2018-08-09T11:22:45.066Z,31.70
2018-08-09T11:25:12.462Z,31.60
2018-08-09T11:27:39.910Z,31.50
2018-08-09T11:30:07.397Z,31.60
2018-08-09T11:32:35.204Z,31.60
2018-08-09T11:35:02.705Z,31.60
2018-08-09T11:37:30.232Z,31.60
2018-08-09T11:39:57.726Z,31.60
2018-08-09T11:42:25.144Z,31.70
2018-08-09T11:44:52.704Z,31.80
2018-08-09T11:47:20.469Z,31.80
2018-08-09T11:49:47.891Z,31.70
2018-08-09T11:52:15.334Z,31.80
2018-08-09T11:54:42.798Z,31.80
2018-08-09T11:57:10.283Z,31.80
2018-08-09T11:59:37.699Z,31.80
2018-08-09T12:02:05.226Z,31.80
2018-08-09T12:04:32.733Z,31.80
2018-08-09T12:07:00.316Z,31.70
2018-08-09T12:09:27.760Z,31.20
2018-08-09T12:11:55.229Z,30.80
2018-08-09T12:14:22.574Z,30.40
2018-08-09T12:16:49.966Z,30.00
2018-08-09T12:19:17.368Z,29.80
2018-08-09T12:21:44.773Z,29.50
2018-08-09T12:24:12.172Z,29.20
2018-08-09T12:26:39.670Z,29.00
2018-08-09T12:29:07.092Z,29.00
2018-08-09T12:31:34.556Z,28.90
2018-08-09T12:34:02.007Z,28.60
2018-08-09T12:36:29.574Z,28.30
2018-08-09T12:38:57.031Z,28.10
2018-08-09T12:41:24.531Z,27.70
2018-08-09T12:43:52.045Z,27.60
2018-08-09T12:46:19.537Z,27.10
2018-08-09T12:48:46.976Z,26.70
2018-08-09T12:51:14.570Z,26.40
2018-08-09T12:53:41.947Z,26.20
2018-08-09T12:56:09.360Z,26.10
2018-08-09T12:58:37.473Z,26.10
2018-08-09T13:01:05.102Z,25.90
2018-08-09T13:03:32.609Z,25.90
2018-08-09T13:05:59.980Z,25.70
2018-08-09T13:08:27.815Z,25.70
2018-08-09T13:10:55.301Z,25.60
2018-08-09T13:13:22.806Z,25.50
2018-08-09T13:15:50.305Z,25.40
2018-08-09T13:18:17.820Z,25.30
2018-08-09T13:20:45.230Z,25.20
2018-08-09T13:23:12.617Z,25.20
2018-08-09T13:25:40.101Z,25.20
2018-08-09T13:28:07.588Z,25.30
2018-08-09T13:30:35.055Z,25.40
2018-08-09T13:33:02.496Z,25.50
2018-08-09T13:35:30.049Z,25.60
2018-08-09T13:37:57.463Z,25.60
2018-08-09T13:40:24.914Z,25.70
2018-08-09T13:42:52.368Z,25.80
2018-08-09T13:45:19.821Z,25.90
2018-08-09T13:47:47.273Z,25.90
2018-08-09T13:50:14.733Z,25.90
2018-08-09T13:52:42.253Z,25.90
2018-08-09T13:55:11.311Z,25.90
2018-08-09T13:57:38.712Z,25.90
2018-08-09T14:00:07.968Z,25.90
2018-08-09T14:02:35.497Z,25.90
2018-08-09T14:05:03.811Z,26.00
2018-08-09T14:07:31.308Z,26.00
2018-08-09T14:09:58.828Z,25.90
2018-08-09T14:12:26.254Z,25.90
2018-08-09T14:14:53.655Z,25.90
2018-08-09T14:17:21.060Z,25.90
2018-08-09T14:19:48.486Z,25.90
2018-08-09T14:22:16.003Z,25.90
2018-08-09T14:24:43.426Z,26.00
2018-08-09T14:27:10.752Z,26.00
2018-08-09T14:29:38.261Z,26.10
2018-08-09T14:32:05.858Z,26.10
2018-08-09T14:34:33.276Z,26.20
2018-08-09T14:37:00.790Z,26.30
2018-08-09T14:39:28.175Z,26.30
2018-08-09T14:41:55.601Z,26.30
2018-08-09T14:44:22.948Z,26.30
2018-08-09T14:46:50.445Z,26.30
2018-08-09T14:49:17.924Z,26.30
2018-08-09T14:51:45.512Z,26.40
2018-08-09T14:54:12.939Z,26.40
2018-08-09T14:56:40.500Z,26.40
2018-08-09T14:59:08.059Z,26.50
2018-08-09T15:01:35.589Z,26.50
2018-08-09T15:04:03.162Z,26.40
2018-08-09T15:06:30.726Z,26.50
2018-08-09T15:08:58.289Z,26.50
2018-08-09T15:11:25.859Z,26.50
2018-08-09T15:13:53.333Z,26.40
2018-08-09T15:16:20.780Z,26.50
2018-08-09T15:18:48.299Z,26.50
2018-08-09T15:21:15.779Z,26.40
2018-08-09T15:23:43.190Z,26.50
2018-08-09T15:26:10.677Z,26.40
2018-08-09T15:28:38.217Z,26.40
2018-08-09T15:31:05.697Z,26.40
2018-08-09T15:33:33.171Z,26.40
2018-08-09T15:36:00.652Z,26.40
2018-08-09T15:38:28.086Z,26.40
2018-08-09T15:40:55.627Z,26.40
2018-08-09T15:43:23.012Z,26.40
2018-08-09T15:45:50.462Z,26.40
2018-08-09T15:48:17.948Z,26.40
2018-08-09T15:50:45.463Z,26.40
2018-08-09T15:53:12.957Z,26.40
2018-08-09T15:55:40.402Z,26.40
2018-08-09T15:58:07.871Z,26.40
2018-08-09T16:00:35.486Z,26.40
2018-08-09T16:03:02.977Z,26.30
2018-08-09T16:05:30.310Z,26.30
2018-08-09T16:07:57.823Z,26.30
2018-08-09T16:10:25.368Z,26.30
2018-08-09T16:12:52.895Z,26.30
2018-08-09T16:15:20.417Z,26.20
2018-08-09T16:17:48.559Z,26.20
2018-08-09T16:20:16.257Z,26.20
2018-08-09T16:22:44.643Z,26.20
2018-08-09T16:25:14.380Z,26.20
2018-08-09T16:27:42.116Z,26.20
2018-08-09T16:30:13.914Z,26.10
2018-08-09T16:32:41.729Z,26.10
2018-08-09T16:35:10.121Z,26.00
2018-08-09T16:37:38.000Z,26.00
2018-08-09T16:40:06.077Z,25.90
2018-08-09T16:42:33.583Z,25.90
2018-08-09T16:45:00.990Z,25.80
2018-08-09T16:47:28.402Z,25.80
2018-08-09T16:49:55.876Z,25.80
2018-08-09T16:52:23.364Z,25.80
2018-08-09T16:54:50.856Z,25.70
2018-08-09T16:57:18.351Z,25.70
2018-08-09T16:59:45.761Z,25.70
2018-08-09T17:02:13.239Z,25.70
2018-08-09T17:04:40.701Z,25.70
2018-08-09T17:07:08.156Z,25.70
2018-08-09T17:09:35.593Z,25.60
2018-08-09T17:12:03.052Z,25.60
2018-08-09T17:14:30.501Z,25.60
2018-08-09T17:16:57.998Z,25.60
2018-08-09T17:19:25.440Z,25.60
2018-08-09T17:21:52.884Z,25.60
2018-08-09T17:24:20.458Z,25.60
2018-08-09T17:26:47.893Z,25.60
2018-08-09T17:29:15.372Z,25.60
2018-08-09T17:31:42.767Z,25.60
2018-08-09T17:34:10.214Z,25.60
2018-08-09T17:36:37.673Z,25.60
2018-08-09T17:39:09.074Z,25.60
2018-08-09T17:41:36.616Z,25.50
2018-08-09T17:44:05.223Z,25.50
2018-08-09T17:46:32.600Z,25.50
2018-08-09T17:49:00.044Z,25.50
2018-08-09T17:51:27.447Z,25.40
2018-08-09T17:53:54.927Z,25.30
2018-08-09T17:56:22.556Z,25.30
2018-08-09T17:58:50.028Z,25.30
2018-08-09T18:01:17.516Z,25.20
2018-08-09T18:03:44.960Z,25.20
2018-08-09T18:06:12.440Z,25.10
2018-08-09T18:08:39.955Z,25.00
2018-08-09T18:11:07.475Z,25.00
2018-08-09T18:13:34.866Z,25.00
2018-08-09T18:16:02.474Z,25.00
2018-08-09T18:18:29.984Z,25.00
2018-08-09T18:20:57.576Z,25.00
2018-08-09T18:23:25.124Z,24.90
2018-08-09T18:25:52.626Z,24.90
2018-08-09T18:28:20.176Z,24.90
2018-08-09T18:30:47.667Z,24.90
2018-08-09T18:33:15.136Z,24.90
2018-08-09T18:35:42.597Z,24.80
2018-08-09T18:38:10.136Z,24.80
2018-08-09T18:40:37.627Z,24.90
2018-08-09T18:43:05.184Z,24.80
2018-08-09T18:45:32.756Z,24.80
2018-08-09T18:48:00.132Z,24.80
2018-08-09T18:50:28.768Z,24.90
2018-08-09T18:52:56.736Z,24.80
2018-08-09T18:55:24.305Z,24.80
2018-08-09T18:57:52.366Z,24.80
2018-08-09T19:00:24.803Z,24.80
2018-08-09T19:02:52.543Z,24.80
2018-08-09T19:05:20.106Z,24.80
2018-08-09T19:07:47.767Z,24.80
2018-08-09T19:10:24.720Z,24.80
2018-08-09T19:12:52.348Z,24.70
2018-08-09T19:15:19.980Z,24.70
2018-08-09T19:17:47.701Z,24.70
2018-08-09T19:20:32.658Z,24.70
2018-08-09T19:23:00.732Z,24.70
2018-08-09T19:25:28.554Z,24.70
2018-08-09T19:27:56.410Z,24.70
2018-08-09T19:30:25.727Z,24.70
2018-08-09T19:32:53.527Z,24.70
2018-08-09T19:35:21.929Z,24.70
2018-08-09T19:37:49.801Z,24.70
2018-08-09T19:40:20.027Z,24.60
2018-08-09T19:42:47.713Z,24.50
2018-08-09T19:45:16.379Z,24.50
2018-08-09T19:47:43.883Z,24.40
2018-08-09T19:50:13.515Z,24.40
2018-08-09T19:52:40.951Z,24.40
2018-08-09T19:55:10.255Z,24.40
2018-08-09T19:57:37.974Z,24.40
2018-08-09T20:00:07.223Z,24.30
2018-08-09T20:02:34.793Z,24.30
2018-08-09T20:05:02.256Z,24.30
2018-08-09T20:07:29.921Z,24.30
2018-08-09T20:09:57.474Z,24.40
2018-08-09T20:12:25.014Z,24.30
2018-08-09T20:14:52.499Z,24.30
2018-08-09T20:17:20.029Z,24.30
2018-08-09T20:19:47.438Z,24.30
2018-08-09T20:22:17.070Z,24.20
2018-08-09T20:24:44.936Z,24.20
2018-08-09T20:27:12.678Z,24.10
2018-08-09T20:29:40.127Z,24.10
2018-08-09T20:32:07.549Z,24.10
2018-08-09T20:34:35.067Z,24.10
2018-08-09T20:37:02.809Z,24.00
2018-08-09T20:39:30.365Z,24.00
2018-08-09T20:41:58.033Z,24.00
2018-08-09T20:44:25.534Z,24.00
2018-08-09T20:46:53.000Z,24.00
2018-08-09T20:49:20.580Z,23.90
2018-08-09T20:51:48.602Z,23.90
2018-08-09T20:54:16.240Z,23.90
2018-08-09T20:56:43.746Z,23.90
2018-08-09T20:59:11.176Z,23.90
2018-08-09T21:01:38.668Z,23.90
2018-08-09T21:04:06.868Z,23.90
2018-08-09T21:06:34.322Z,23.90
2018-08-09T21:09:01.830Z,23.80
2018-08-09T21:11:29.279Z,23.90
2018-08-09T21:13:56.700Z,23.80
2018-08-09T21:16:24.133Z,23.80
2018-08-09T21:18:51.858Z,23.70
2018-08-09T21:21:19.318Z,23.60
2018-08-09T21:23:46.796Z,23.60
2018-08-09T21:26:14.233Z,23.60
2018-08-09T21:28:41.647Z,23.50
2018-08-09T21:31:09.167Z,23.50
2018-08-09T21:33:36.618Z,23.50
2018-08-09T21:36:04.181Z,23.50
2018-08-09T21:38:31.906Z,23.50
2018-08-09T21:40:59.541Z,23.50
2018-08-09T21:43:27.059Z,23.50
2018-08-09T21:45:54.578Z,23.40
2018-08-09T21:48:22.010Z,23.30
2018-08-09T21:50:49.544Z,23.20
2018-08-09T21:53:16.953Z,23.10
2018-08-09T21:55:44.465Z,23.00
2018-08-09T21:58:12.044Z,22.90
2018-08-09T22:00:51.664Z,22.90
2018-08-09T22:03:21.257Z,22.90
2018-08-09T22:05:54.663Z,22.90
2018-08-09T22:08:27.945Z,22.90
2018-08-09T22:11:01.579Z,22.90
2018-08-09T22:13:34.781Z,22.90
2018-08-09T22:16:08.447Z,22.80
2018-08-09T22:18:41.540Z,22.80
2018-08-09T22:21:14.576Z,22.70
2018-08-09T22:23:42.349Z,22.70
2018-08-09T22:26:10.449Z,22.60
2018-08-09T22:28:37.933Z,22.60
2018-08-09T22:31:05.517Z,22.50
2018-08-09T22:33:33.427Z,22.50
2018-08-09T22:36:00.939Z,22.50
2018-08-09T22:38:28.911Z,22.30
2018-08-09T22:40:56.398Z,22.30
2018-08-09T22:43:23.843Z,22.10
2018-08-09T22:45:51.348Z,22.10
2018-08-09T22:48:18.885Z,22.00
2018-08-09T22:50:46.360Z,22.00
2018-08-09T22:53:14.631Z,21.90
2018-08-09T22:55:42.284Z,21.80
2018-08-09T22:58:09.827Z,21.70
2018-08-09T23:00:37.268Z,21.70
2018-08-09T23:03:08.032Z,21.60
2018-08-09T23:05:36.109Z,21.60
2018-08-09T23:08:04.472Z,21.60
2018-08-09T23:10:32.007Z,21.50
2018-08-09T23:12:59.452Z,21.50
2018-08-09T23:15:26.888Z,21.40
2018-08-09T23:17:54.270Z,21.30
2018-08-09T23:20:21.698Z,21.30
2018-08-09T23:22:49.123Z,21.30
2018-08-09T23:25:16.491Z,21.30
2018-08-09T23:27:45.444Z,21.30
2018-08-09T23:30:12.959Z,21.20
2018-08-09T23:32:40.384Z,21.10
2018-08-09T23:35:09.348Z,21.10
2018-08-09T23:37:36.827Z,21.10
2018-08-09T23:40:05.384Z,21.00
2018-08-09T23:42:33.342Z,21.00
2018-08-09T23:45:00.717Z,20.90
2018-08-09T23:47:28.096Z,20.80
2018-08-09T23:49:55.528Z,20.70
2018-08-09T23:52:23.043Z,20.70
2018-08-09T23:54:50.493Z,20.60
2018-08-09T23:57:18.187Z,20.50
2018-08-09T23:59:45.580Z,20.40
